sensor_id;sensor_type;location;lat;lon;timestamp;pressure;altitude;pressure_sealevel;temperature;humidity
63708;BME280;67643;-34.198;22.084;2023-04-26T02:05:46;100188.81;;;13.88;69.95
63708;BME280;67643;-34.198;22.084;2023-04-26T02:08:14;100187.74;;;17.16;61.06
63708;BME280;67643;-34.198;22.084;2023-04-26T02:10:43;100180.88;;;18.20;56.11
63708;BME280;67643;-34.198;22.084;2023-04-26T02:13:11;100183.31;;;19.26;53.58
63708;BME280;67643;-34.198;22.084;2023-04-26T02:15:40;100179.76;;;19.76;51.60
63708;BME280;67643;-34.198;22.084;2023-04-26T02:18:08;100174.69;;;20.29;50.87
63708;BME280;67643;-34.198;22.084;2023-04-26T02:20:39;100170.93;;;20.06;50.78
63708;BME280;67643;-34.198;22.084;2023-04-26T02:23:07;100170.47;;;20.34;49.67
63708;BME280;67643;-34.198;22.084;2023-04-26T02:25:36;100169.19;;;20.45;49.38
63708;BME280;67643;-34.198;22.084;2023-04-26T02:28:05;100163.14;;;20.06;49.56
63708;BME280;67643;-34.198;22.084;2023-04-26T02:30:33;100165.23;;;20.37;49.09
63708;BME280;67643;-34.198;22.084;2023-04-26T02:33:01;100163.83;;;20.35;49.18
63708;BME280;67643;-34.198;22.084;2023-04-26T02:35:29;100162.40;;;20.02;49.48
63708;BME280;67643;-34.198;22.084;2023-04-26T02:37:58;100157.97;;;19.89;49.95
63708;BME280;67643;-34.198;22.084;2023-04-26T02:40:27;100158.05;;;20.20;49.03
63708;BME280;67643;-34.198;22.084;2023-04-26T02:42:55;100160.62;;;20.07;49.57
63708;BME280;67643;-34.198;22.084;2023-04-26T02:45:23;100161.27;;;20.05;49.68
63708;BME280;67643;-34.198;22.084;2023-04-26T02:47:52;100162.49;;;20.21;49.53
63708;BME280;67643;-34.198;22.084;2023-04-26T02:50:21;100158.85;;;20.19;49.88
63708;BME280;67643;-34.198;22.084;2023-04-26T02:52:49;100165.41;;;20.44;49.24
63708;BME280;67643;-34.198;22.084;2023-04-26T02:55:18;100162.90;;;20.39;49.11
63708;BME280;67643;-34.198;22.084;2023-04-26T02:57:46;100162.00;;;20.24;48.94
63708;BME280;67643;-34.198;22.084;2023-04-26T03:00:14;100162.08;;;20.31;49.41
63708;BME280;67643;-34.198;22.084;2023-04-26T03:02:43;100155.72;;;20.50;48.94
63708;BME280;67643;-34.198;22.084;2023-04-26T03:05:11;100148.74;;;20.50;48.85
63708;BME280;67643;-34.198;22.084;2023-04-26T03:07:40;100139.98;;;20.49;48.83
63708;BME280;67643;-34.198;22.084;2023-04-26T03:10:09;100132.94;;;20.28;49.17
63708;BME280;67643;-34.198;22.084;2023-04-26T03:12:38;100130.25;;;20.81;48.73
63708;BME280;67643;-34.198;22.084;2023-04-26T03:15:07;100132.31;;;20.42;48.50
63708;BME280;67643;-34.198;22.084;2023-04-26T03:17:36;100126.92;;;20.79;48.62
63708;BME280;67643;-34.198;22.084;2023-04-26T03:20:06;100124.26;;;20.46;48.88
63708;BME280;67643;-34.198;22.084;2023-04-26T03:22:34;100120.90;;;20.63;48.91
63708;BME280;67643;-34.198;22.084;2023-04-26T03:25:04;100115.36;;;20.32;49.16
63708;BME280;67643;-34.198;22.084;2023-04-26T03:27:32;100110.69;;;20.41;49.09
63708;BME280;67643;-34.198;22.084;2023-04-26T03:30:01;100110.39;;;20.19;49.44
63708;BME280;67643;-34.198;22.084;2023-04-26T03:32:30;100113.63;;;20.59;49.22
63708;BME280;67643;-34.198;22.084;2023-04-26T03:34:58;100118.42;;;20.45;49.72
63708;BME280;67643;-34.198;22.084;2023-04-26T03:37:26;100118.11;;;20.34;49.49
63708;BME280;67643;-34.198;22.084;2023-04-26T03:39:55;100113.20;;;20.55;49.76
63708;BME280;67643;-34.198;22.084;2023-04-26T03:42:24;100115.67;;;20.40;50.01
63708;BME280;67643;-34.198;22.084;2023-04-26T03:44:52;100123.56;;;20.47;50.03
63708;BME280;67643;-34.198;22.084;2023-04-26T03:47:20;100129.83;;;20.71;50.09
63708;BME280;67643;-34.198;22.084;2023-04-26T03:49:49;100126.82;;;20.56;50.49
63708;BME280;67643;-34.198;22.084;2023-04-26T03:52:18;100127.41;;;20.06;50.39
63708;BME280;67643;-34.198;22.084;2023-04-26T03:54:47;100130.92;;;20.30;50.43
63708;BME280;67643;-34.198;22.084;2023-04-26T03:57:15;100130.20;;;20.17;50.49
63708;BME280;67643;-34.198;22.084;2023-04-26T03:59:43;100127.08;;;20.12;50.73
63708;BME280;67643;-34.198;22.084;2023-04-26T04:02:12;100124.45;;;20.17;50.64
63708;BME280;67643;-34.198;22.084;2023-04-26T04:04:40;100118.51;;;20.42;50.36
63708;BME280;67643;-34.198;22.084;2023-04-26T04:07:08;100109.25;;;20.30;50.46
63708;BME280;67643;-34.198;22.084;2023-04-26T04:09:37;100106.44;;;20.40;51.04
63708;BME280;67643;-34.198;22.084;2023-04-26T04:12:06;100101.73;;;20.30;50.63
63708;BME280;67643;-34.198;22.084;2023-04-26T04:14:34;100102.95;;;20.24;51.38
63708;BME280;67643;-34.198;22.084;2023-04-26T04:17:02;100103.61;;;19.79;51.35
63708;BME280;67643;-34.198;22.084;2023-04-26T04:19:31;100107.66;;;20.45;50.44
63708;BME280;67643;-34.198;22.084;2023-04-26T04:21:59;100106.25;;;20.66;50.51
63708;BME280;67643;-34.198;22.084;2023-04-26T04:24:28;100107.41;;;20.51;50.67
63708;BME280;67643;-34.198;22.084;2023-04-26T04:26:56;100101.84;;;19.64;51.77
63708;BME280;67643;-34.198;22.084;2023-04-26T04:29:25;100102.13;;;20.15;51.04
63708;BME280;67643;-34.198;22.084;2023-04-26T04:31:53;100103.57;;;19.76;51.07
63708;BME280;67643;-34.198;22.084;2023-04-26T04:34:22;100105.15;;;20.01;51.06
63708;BME280;67643;-34.198;22.084;2023-04-26T04:36:50;100104.84;;;20.18;50.88
63708;BME280;67643;-34.198;22.084;2023-04-26T04:39:18;100106.10;;;19.91;51.26
63708;BME280;67643;-34.198;22.084;2023-04-26T04:41:47;100099.63;;;20.08;50.64
63708;BME280;67643;-34.198;22.084;2023-04-26T04:44:16;100089.03;;;19.51;52.03
63708;BME280;67643;-34.198;22.084;2023-04-26T04:46:44;100086.02;;;19.98;50.74
63708;BME280;67643;-34.198;22.084;2023-04-26T04:49:13;100085.87;;;20.38;49.99
63708;BME280;67643;-34.198;22.084;2023-04-26T04:51:42;100076.81;;;19.63;51.86
63708;BME280;67643;-34.198;22.084;2023-04-26T04:54:11;100082.70;;;20.31;49.91
63708;BME280;67643;-34.198;22.084;2023-04-26T04:56:40;100086.95;;;20.40;49.99
63708;BME280;67643;-34.198;22.084;2023-04-26T04:59:09;100089.27;;;20.06;50.86
63708;BME280;67643;-34.198;22.084;2023-04-26T05:01:38;100088.99;;;19.93;50.40
63708;BME280;67643;-34.198;22.084;2023-04-26T05:04:06;100085.31;;;20.35;49.84
63708;BME280;67643;-34.198;22.084;2023-04-26T05:06:34;100080.87;;;20.28;49.79
63708;BME280;67643;-34.198;22.084;2023-04-26T05:09:03;100075.86;;;20.41;49.86
63708;BME280;67643;-34.198;22.084;2023-04-26T05:11:32;100065.68;;;19.69;50.86
63708;BME280;67643;-34.198;22.084;2023-04-26T05:14:01;100063.00;;;19.64;50.50
63708;BME280;67643;-34.198;22.084;2023-04-26T05:16:29;100063.34;;;20.15;50.38
63708;BME280;67643;-34.198;22.084;2023-04-26T05:18:58;100062.29;;;19.48;51.13
63708;BME280;67643;-34.198;22.084;2023-04-26T05:21:26;100064.82;;;19.83;50.48
63708;BME280;67643;-34.198;22.084;2023-04-26T05:23:54;100060.18;;;19.21;51.21
63708;BME280;67643;-34.198;22.084;2023-04-26T05:26:23;100061.60;;;19.72;50.63
63708;BME280;67643;-34.198;22.084;2023-04-26T05:28:51;100052.73;;;19.73;50.23
63708;BME280;67643;-34.198;22.084;2023-04-26T05:31:20;100048.12;;;19.68;50.64
63708;BME280;67643;-34.198;22.084;2023-04-26T05:33:48;100050.81;;;19.96;50.68
63708;BME280;67643;-34.198;22.084;2023-04-26T05:36:17;100059.29;;;19.76;51.04
63708;BME280;67643;-34.198;22.084;2023-04-26T05:38:45;100057.29;;;19.67;50.89
63708;BME280;67643;-34.198;22.084;2023-04-26T05:41:13;100053.05;;;19.80;51.56
63708;BME280;67643;-34.198;22.084;2023-04-26T05:43:42;100052.45;;;19.49;51.35
63708;BME280;67643;-34.198;22.084;2023-04-26T05:46:11;100051.62;;;19.95;50.94
63708;BME280;67643;-34.198;22.084;2023-04-26T05:48:40;100046.04;;;19.68;51.08
63708;BME280;67643;-34.198;22.084;2023-04-26T05:51:09;100043.14;;;19.59;51.27
63708;BME280;67643;-34.198;22.084;2023-04-26T05:53:37;100043.89;;;19.54;51.15
63708;BME280;67643;-34.198;22.084;2023-04-26T05:56:05;100046.26;;;20.18;50.92
63708;BME280;67643;-34.198;22.084;2023-04-26T05:58:34;100051.11;;;20.14;50.36
63708;BME280;67643;-34.198;22.084;2023-04-26T06:01:02;100054.63;;;20.40;50.81
63708;BME280;67643;-34.198;22.084;2023-04-26T08:08:32;100022.42;;;18.15;61.00
63708;BME280;67643;-34.198;22.084;2023-04-26T08:11:01;100017.14;;;19.61;56.00
63708;BME280;67643;-34.198;22.084;2023-04-26T08:13:34;100021.44;;;20.18;53.06
63708;BME280;67643;-34.198;22.084;2023-04-26T08:16:02;100017.48;;;20.95;50.83
63708;BME280;67643;-34.198;22.084;2023-04-26T08:18:31;100012.32;;;21.01;50.12
63708;BME280;67643;-34.198;22.084;2023-04-26T08:20:59;100010.69;;;21.18;49.29
63708;BME280;67643;-34.198;22.084;2023-04-26T08:23:27;100010.74;;;21.41;48.78
63708;BME280;67643;-34.198;22.084;2023-04-26T08:25:56;100008.96;;;21.53;48.44
63708;BME280;67643;-34.198;22.084;2023-04-26T08:28:25;100006.83;;;21.67;48.28
63708;BME280;67643;-34.198;22.084;2023-04-26T08:30:53;100003.45;;;21.94;47.71
63708;BME280;67643;-34.198;22.084;2023-04-26T08:33:21;99997.37;;;21.64;48.08
63708;BME280;67643;-34.198;22.084;2023-04-26T08:35:49;99997.70;;;21.96;47.85
63708;BME280;67643;-34.198;22.084;2023-04-26T08:38:18;99995.88;;;21.78;48.09
63708;BME280;67643;-34.198;22.084;2023-04-26T08:40:47;99994.79;;;21.64;47.50
63708;BME280;67643;-34.198;22.084;2023-04-26T08:43:16;99992.32;;;22.20;47.39
63708;BME280;67643;-34.198;22.084;2023-04-26T08:45:45;99988.74;;;22.23;47.48
63708;BME280;67643;-34.198;22.084;2023-04-26T08:48:14;99980.38;;;22.29;47.34
63708;BME280;67643;-34.198;22.084;2023-04-26T08:50:43;99977.59;;;22.14;47.30
63708;BME280;67643;-34.198;22.084;2023-04-26T08:53:15;99973.98;;;22.20;47.50
63708;BME280;67643;-34.198;22.084;2023-04-26T08:55:48;99974.04;;;22.01;47.44
63708;BME280;67643;-34.198;22.084;2023-04-26T08:58:19;99974.99;;;22.39;46.38
63708;BME280;67643;-34.198;22.084;2023-04-26T09:00:47;99967.07;;;22.82;45.90
63708;BME280;67643;-34.198;22.084;2023-04-26T09:03:17;99967.52;;;22.15;46.46
63708;BME280;67643;-34.198;22.084;2023-04-26T09:05:46;99962.11;;;22.33;46.71
63708;BME280;67643;-34.198;22.084;2023-04-26T09:08:16;99965.61;;;22.40;46.60
63708;BME280;67643;-34.198;22.084;2023-04-26T09:10:44;99959.79;;;21.74;47.37
63708;BME280;67643;-34.198;22.084;2023-04-26T09:13:13;99952.73;;;22.21;46.65
63708;BME280;67643;-34.198;22.084;2023-04-26T09:15:41;99949.24;;;22.22;46.57
63708;BME280;67643;-34.198;22.084;2023-04-26T09:18:18;99948.15;;;22.32;46.43
63708;BME280;67643;-34.198;22.084;2023-04-26T09:21:01;99944.34;;;22.50;46.13
63708;BME280;67643;-34.198;22.084;2023-04-26T09:23:30;99940.67;;;22.37;46.40
63708;BME280;67643;-34.198;22.084;2023-04-26T09:26:16;99942.52;;;22.37;46.36
63708;BME280;67643;-34.198;22.084;2023-04-26T09:28:44;99945.38;;;22.35;46.29
63708;BME280;67643;-34.198;22.084;2023-04-26T09:31:35;99945.85;;;22.34;46.52
63708;BME280;67643;-34.198;22.084;2023-04-26T09:34:04;99938.36;;;22.94;45.59
63708;BME280;67643;-34.198;22.084;2023-04-26T09:36:32;99938.93;;;22.98;45.42
63708;BME280;67643;-34.198;22.084;2023-04-26T09:39:13;99940.50;;;23.17;45.26
63708;BME280;67643;-34.198;22.084;2023-04-26T09:41:42;99934.18;;;23.32;45.47
63708;BME280;67643;-34.198;22.084;2023-04-26T09:44:21;99930.78;;;23.46;44.79
63708;BME280;67643;-34.198;22.084;2023-04-26T09:47:03;99926.02;;;23.05;45.58
63708;BME280;67643;-34.198;22.084;2023-04-26T09:49:42;99925.47;;;23.23;45.48
63708;BME280;67643;-34.198;22.084;2023-04-26T09:52:11;99924.03;;;22.97;45.84
63708;BME280;67643;-34.198;22.084;2023-04-26T09:54:41;99919.76;;;23.56;44.82
63708;BME280;67643;-34.198;22.084;2023-04-26T09:57:12;99916.19;;;23.67;44.77
63708;BME280;67643;-34.198;22.084;2023-04-26T09:59:42;99909.89;;;23.21;45.59
63708;BME280;67643;-34.198;22.084;2023-04-26T10:02:18;99908.02;;;23.63;45.08
63708;BME280;67643;-34.198;22.084;2023-04-26T10:04:48;99905.43;;;23.78;44.75
63708;BME280;67643;-34.198;22.084;2023-04-26T10:07:20;99897.23;;;23.71;44.87
63708;BME280;67643;-34.198;22.084;2023-04-26T10:09:49;99897.13;;;23.67;44.95
63708;BME280;67643;-34.198;22.084;2023-04-26T10:12:18;99891.30;;;23.56;45.24
63708;BME280;67643;-34.198;22.084;2023-04-26T10:14:47;99889.97;;;23.82;44.75
63708;BME280;67643;-34.198;22.084;2023-04-26T10:17:15;99887.89;;;23.72;44.50
63708;BME280;67643;-34.198;22.084;2023-04-26T10:19:48;99886.42;;;23.84;44.64
63708;BME280;67643;-34.198;22.084;2023-04-26T10:22:22;99882.00;;;23.44;45.13
63708;BME280;67643;-34.198;22.084;2023-04-26T10:24:54;99874.83;;;23.61;44.74
63708;BME280;67643;-34.198;22.084;2023-04-26T10:27:55;99863.86;;;23.43;45.02
63708;BME280;67643;-34.198;22.084;2023-04-26T10:30:23;99855.38;;;23.50;44.65
63708;BME280;67643;-34.198;22.084;2023-04-26T10:33:12;99844.92;;;23.65;44.75
63708;BME280;67643;-34.198;22.084;2023-04-26T10:36:00;99837.98;;;24.04;44.21
63708;BME280;67643;-34.198;22.084;2023-04-26T10:38:29;99840.24;;;23.78;44.56
63708;BME280;67643;-34.198;22.084;2023-04-26T10:41:28;99837.66;;;23.85;44.01
63708;BME280;67643;-34.198;22.084;2023-04-26T10:43:57;99835.44;;;23.83;43.59
63708;BME280;67643;-34.198;22.084;2023-04-26T10:46:36;99830.14;;;23.81;43.71
63708;BME280;67643;-34.198;22.084;2023-04-26T10:49:16;99825.68;;;23.84;43.99
63708;BME280;67643;-34.198;22.084;2023-04-26T10:52:18;99818.67;;;23.35;44.27
63708;BME280;67643;-34.198;22.084;2023-04-26T10:54:50;99814.96;;;23.54;44.02
63708;BME280;67643;-34.198;22.084;2023-04-26T10:57:19;99811.64;;;23.42;44.22
63708;BME280;67643;-34.198;22.084;2023-04-26T11:00:25;99804.61;;;23.63;44.05
63708;BME280;67643;-34.198;22.084;2023-04-26T11:02:55;99794.49;;;23.57;44.37
63708;BME280;67643;-34.198;22.084;2023-04-26T11:06:06;99790.01;;;23.72;44.33
63708;BME280;67643;-34.198;22.084;2023-04-26T11:08:34;99789.98;;;23.55;44.63
63708;BME280;67643;-34.198;22.084;2023-04-26T11:11:07;99784.37;;;23.63;44.72
63708;BME280;67643;-34.198;22.084;2023-04-26T11:13:38;99777.06;;;23.46;44.68
63708;BME280;67643;-34.198;22.084;2023-04-26T11:16:08;99764.95;;;23.64;44.38
63708;BME280;67643;-34.198;22.084;2023-04-26T11:18:37;99764.15;;;23.47;44.56
63708;BME280;67643;-34.198;22.084;2023-04-26T11:21:07;99754.95;;;23.72;44.34
63708;BME280;67643;-34.198;22.084;2023-04-26T11:23:36;99749.64;;;22.88;45.12
63708;BME280;67643;-34.198;22.084;2023-04-26T11:26:05;99745.05;;;22.73;46.42
63708;BME280;67643;-34.198;22.084;2023-04-26T11:28:35;99737.93;;;23.22;45.46
63708;BME280;67643;-34.198;22.084;2023-04-26T11:31:05;99734.70;;;23.53;44.57
63708;BME280;67643;-34.198;22.084;2023-04-26T11:33:34;99728.00;;;23.76;44.15
63708;BME280;67643;-34.198;22.084;2023-04-26T11:36:03;99729.18;;;23.28;45.00
63708;BME280;67643;-34.198;22.084;2023-04-26T11:38:32;99728.89;;;22.73;46.39
63708;BME280;67643;-34.198;22.084;2023-04-26T11:41:02;99722.92;;;22.57;46.51
63708;BME280;67643;-34.198;22.084;2023-04-26T11:43:34;99712.21;;;22.55;46.54
63708;BME280;67643;-34.198;22.084;2023-04-26T11:46:04;99713.01;;;22.55;46.92
63708;BME280;67643;-34.198;22.084;2023-04-26T11:48:35;99704.80;;;22.69;46.37
63708;BME280;67643;-34.198;22.084;2023-04-26T11:51:05;99692.68;;;23.68;45.09
63708;BME280;67643;-34.198;22.084;2023-04-26T11:53:37;99687.83;;;23.89;44.07
63708;BME280;67643;-34.198;22.084;2023-04-26T11:56:14;99686.67;;;23.19;45.43
63708;BME280;67643;-34.198;22.084;2023-04-26T11:58:45;99683.42;;;23.33;45.64
63708;BME280;67643;-34.198;22.084;2023-04-26T12:01:20;99685.09;;;23.34;45.21
63708;BME280;67643;-34.198;22.084;2023-04-26T12:03:50;99679.95;;;24.13;43.97
63708;BME280;67643;-34.198;22.084;2023-04-26T12:06:19;99673.95;;;23.94;44.33
63708;BME280;67643;-34.198;22.084;2023-04-26T12:08:52;99669.06;;;23.93;44.35
63708;BME280;67643;-34.198;22.084;2023-04-26T12:11:20;99663.00;;;24.73;43.13
63708;BME280;67643;-34.198;22.084;2023-04-26T12:13:49;99659.42;;;24.47;43.14
63708;BME280;67643;-34.198;22.084;2023-04-26T12:16:17;99654.88;;;24.66;42.84
63708;BME280;67643;-34.198;22.084;2023-04-26T12:18:50;99647.25;;;24.98;42.39
63708;BME280;67643;-34.198;22.084;2023-04-26T12:21:19;99652.35;;;24.71;42.52
63708;BME280;67643;-34.198;22.084;2023-04-26T12:23:48;99642.88;;;25.28;42.01
63708;BME280;67643;-34.198;22.084;2023-04-26T12:26:16;99639.61;;;25.13;41.73
63708;BME280;67643;-34.198;22.084;2023-04-26T12:28:44;99639.99;;;24.99;42.46
63708;BME280;67643;-34.198;22.084;2023-04-26T12:31:13;99631.87;;;24.50;42.51
63708;BME280;67643;-34.198;22.084;2023-04-26T12:33:41;99629.79;;;25.39;41.81
63708;BME280;67643;-34.198;22.084;2023-04-26T12:36:11;99630.02;;;25.68;41.32
63708;BME280;67643;-34.198;22.084;2023-04-26T12:38:40;99629.81;;;26.02;40.76
63708;BME280;67643;-34.198;22.084;2023-04-26T12:41:08;99628.01;;;25.28;41.20
63708;BME280;67643;-34.198;22.084;2023-04-26T12:43:37;99626.31;;;25.70;40.49
63708;BME280;67643;-34.198;22.084;2023-04-26T12:46:06;99628.40;;;24.80;41.36
63708;BME280;67643;-34.198;22.084;2023-04-26T12:48:34;99627.03;;;26.03;40.02
63708;BME280;67643;-34.198;22.084;2023-04-26T12:51:04;99626.01;;;25.45;40.37
63708;BME280;67643;-34.198;22.084;2023-04-26T12:53:32;99632.11;;;26.13;39.74
63708;BME280;67643;-34.198;22.084;2023-04-26T12:56:00;99630.63;;;26.11;39.56
63708;BME280;67643;-34.198;22.084;2023-04-26T12:58:28;99632.51;;;25.52;40.18
63708;BME280;67643;-34.198;22.084;2023-04-26T13:00:57;99638.66;;;25.89;40.37
63708;BME280;67643;-34.198;22.084;2023-04-26T13:03:25;99634.32;;;25.30;40.84
63708;BME280;67643;-34.198;22.084;2023-04-26T13:05:54;99635.13;;;25.05;41.21
63708;BME280;67643;-34.198;22.084;2023-04-26T13:08:22;99627.93;;;25.75;40.85
63708;BME280;67643;-34.198;22.084;2023-04-26T13:10:51;99623.52;;;25.15;41.06
63708;BME280;67643;-34.198;22.084;2023-04-26T13:13:19;99623.11;;;24.96;41.36
63708;BME280;67643;-34.198;22.084;2023-04-26T13:15:48;99621.55;;;24.93;41.41
63708;BME280;67643;-34.198;22.084;2023-04-26T13:18:17;99622.04;;;24.67;41.85
63708;BME280;67643;-34.198;22.084;2023-04-26T13:20:45;99623.41;;;25.35;41.52
63708;BME280;67643;-34.198;22.084;2023-04-26T13:23:14;99626.39;;;24.73;41.83
63708;BME280;67643;-34.198;22.084;2023-04-26T13:25:42;99626.23;;;24.92;41.92
63708;BME280;67643;-34.198;22.084;2023-04-26T13:28:10;99629.68;;;24.70;41.90
63708;BME280;67643;-34.198;22.084;2023-04-26T13:30:39;99624.64;;;25.06;41.96
63708;BME280;67643;-34.198;22.084;2023-04-26T13:33:07;99618.86;;;24.83;41.69
63708;BME280;67643;-34.198;22.084;2023-04-26T13:35:36;99617.54;;;24.79;41.74
63708;BME280;67643;-34.198;22.084;2023-04-26T13:38:04;99613.24;;;24.49;42.19
63708;BME280;67643;-34.198;22.084;2023-04-26T13:40:33;99612.13;;;25.03;42.08
63708;BME280;67643;-34.198;22.084;2023-04-26T13:43:01;99611.30;;;24.96;42.25
63708;BME280;67643;-34.198;22.084;2023-04-26T13:45:30;99614.41;;;24.96;42.29
63708;BME280;67643;-34.198;22.084;2023-04-26T13:47:58;99614.43;;;24.56;42.19
63708;BME280;67643;-34.198;22.084;2023-04-26T13:50:26;99610.76;;;24.31;42.60
63708;BME280;67643;-34.198;22.084;2023-04-26T13:52:55;99606.69;;;24.59;42.92
63708;BME280;67643;-34.198;22.084;2023-04-26T13:55:23;99603.62;;;24.53;42.95
63708;BME280;67643;-34.198;22.084;2023-04-26T13:57:51;99603.42;;;24.42;43.13
63708;BME280;67643;-34.198;22.084;2023-04-26T14:00:21;99600.86;;;24.56;42.99
63708;BME280;67643;-34.198;22.084;2023-04-26T16:04:22;99527.42;;;19.77;57.26
63708;BME280;67643;-34.198;22.084;2023-04-26T16:06:51;99532.72;;;20.77;52.92
63708;BME280;67643;-34.198;22.084;2023-04-26T16:09:19;99529.02;;;21.50;50.70
63708;BME280;67643;-34.198;22.084;2023-04-26T16:11:47;99529.03;;;21.87;49.57
63708;BME280;67643;-34.198;22.084;2023-04-26T16:14:16;99524.90;;;22.04;48.81
63708;BME280;67643;-34.198;22.084;2023-04-26T16:16:44;99523.41;;;22.24;48.46
63708;BME280;67643;-34.198;22.084;2023-04-26T16:19:13;99527.45;;;22.24;48.03
63708;BME280;67643;-34.198;22.084;2023-04-26T16:21:41;99533.31;;;22.59;47.87
63708;BME280;67643;-34.198;22.084;2023-04-26T16:24:10;99539.91;;;22.62;47.76
63708;BME280;67643;-34.198;22.084;2023-04-26T16:26:38;99547.21;;;22.11;48.13
63708;BME280;67643;-34.198;22.084;2023-04-26T16:29:06;99551.62;;;22.23;47.85
63708;BME280;67643;-34.198;22.084;2023-04-26T16:31:35;99547.57;;;22.83;46.75
63708;BME280;67643;-34.198;22.084;2023-04-26T16:34:03;99551.09;;;23.16;45.92
63708;BME280;67643;-34.198;22.084;2023-04-26T16:36:31;99552.14;;;23.30;45.71
63708;BME280;67643;-34.198;22.084;2023-04-26T16:39:00;99550.45;;;23.41;45.44
63708;BME280;67643;-34.198;22.084;2023-04-26T16:41:28;99547.79;;;22.35;47.10
63708;BME280;67643;-34.198;22.084;2023-04-26T16:43:57;99546.18;;;22.20;47.53
63708;BME280;67643;-34.198;22.084;2023-04-26T16:46:25;99544.88;;;23.04;46.09
63708;BME280;67643;-34.198;22.084;2023-04-26T16:48:54;99546.16;;;23.35;45.54
63708;BME280;67643;-34.198;22.084;2023-04-26T16:51:22;99543.62;;;23.01;45.48
63708;BME280;67643;-34.198;22.084;2023-04-26T16:53:50;99547.68;;;22.85;45.84
63708;BME280;67643;-34.198;22.084;2023-04-26T16:56:19;99548.23;;;22.62;46.49
63708;BME280;67643;-34.198;22.084;2023-04-26T16:58:47;99552.80;;;22.90;46.12
63708;BME280;67643;-34.198;22.084;2023-04-26T17:01:16;99556.11;;;23.28;45.48
63708;BME280;67643;-34.198;22.084;2023-04-26T17:03:44;99557.28;;;23.27;45.68
63708;BME280;67643;-34.198;22.084;2023-04-26T17:06:13;99552.11;;;22.93;45.89
63708;BME280;67643;-34.198;22.084;2023-04-26T17:08:42;99549.45;;;22.96;45.87
63708;BME280;67643;-34.198;22.084;2023-04-26T17:11:13;99541.32;;;22.96;45.78
63708;BME280;67643;-34.198;22.084;2023-04-26T17:13:43;99544.24;;;23.03;46.05
63708;BME280;67643;-34.198;22.084;2023-04-26T17:16:12;99551.41;;;23.00;45.82
63708;BME280;67643;-34.198;22.084;2023-04-26T17:18:40;99550.60;;;23.19;45.45
63708;BME280;67643;-34.198;22.084;2023-04-26T17:21:08;99547.88;;;23.14;45.62
63708;BME280;67643;-34.198;22.084;2023-04-26T17:23:37;99547.24;;;22.75;45.83
63708;BME280;67643;-34.198;22.084;2023-04-26T17:26:05;99554.94;;;22.97;45.90
63708;BME280;67643;-34.198;22.084;2023-04-26T17:28:34;99559.41;;;23.13;46.02
63708;BME280;67643;-34.198;22.084;2023-04-26T17:31:03;99562.31;;;23.03;46.05
63708;BME280;67643;-34.198;22.084;2023-04-26T17:33:32;99565.00;;;23.00;45.66
63708;BME280;67643;-34.198;22.084;2023-04-26T17:36:00;99570.35;;;22.99;45.78
63708;BME280;67643;-34.198;22.084;2023-04-26T17:38:28;99572.44;;;23.12;45.99
63708;BME280;67643;-34.198;22.084;2023-04-26T17:40:58;99573.72;;;23.11;45.88
63708;BME280;67643;-34.198;22.084;2023-04-26T17:43:26;99576.30;;;22.92;46.10
63708;BME280;67643;-34.198;22.084;2023-04-26T17:45:55;99576.82;;;22.84;45.92
63708;BME280;67643;-34.198;22.084;2023-04-26T17:48:24;99576.67;;;22.36;46.08
63708;BME280;67643;-34.198;22.084;2023-04-26T17:50:52;99579.46;;;23.15;45.78
63708;BME280;67643;-34.198;22.084;2023-04-26T17:53:20;99575.60;;;22.91;46.03
63708;BME280;67643;-34.198;22.084;2023-04-26T17:55:48;99574.38;;;22.83;46.14
63708;BME280;67643;-34.198;22.084;2023-04-26T17:58:18;99572.57;;;22.45;45.88
63708;BME280;67643;-34.198;22.084;2023-04-26T18:00:47;99571.60;;;23.01;45.74
63708;BME280;67643;-34.198;22.084;2023-04-26T18:03:15;99575.51;;;22.81;46.09
63708;BME280;67643;-34.198;22.084;2023-04-26T18:05:44;99574.32;;;22.35;46.58
63708;BME280;67643;-34.198;22.084;2023-04-26T18:08:13;99573.10;;;22.98;45.55
63708;BME280;67643;-34.198;22.084;2023-04-26T18:10:40;99572.13;;;22.74;46.00
63708;BME280;67643;-34.198;22.084;2023-04-26T18:13:09;99573.32;;;22.86;45.85
63708;BME280;67643;-34.198;22.084;2023-04-26T18:15:37;99573.07;;;22.99;45.54
63708;BME280;67643;-34.198;22.084;2023-04-26T18:18:05;99573.92;;;22.77;45.97
63708;BME280;67643;-34.198;22.084;2023-04-26T18:20:35;99569.68;;;22.75;45.96
63708;BME280;67643;-34.198;22.084;2023-04-26T18:23:04;99567.86;;;22.90;46.15
63708;BME280;67643;-34.198;22.084;2023-04-26T18:25:32;99563.26;;;22.43;46.13
63708;BME280;67643;-34.198;22.084;2023-04-26T18:28:00;99569.57;;;20.76;49.13
63708;BME280;67643;-34.198;22.084;2023-04-26T18:30:29;99568.05;;;21.49;48.07
63708;BME280;67643;-34.198;22.084;2023-04-26T18:32:57;99564.76;;;21.71;47.78
63708;BME280;67643;-34.198;22.084;2023-04-26T18:35:26;99564.60;;;21.91;47.37
63708;BME280;67643;-34.198;22.084;2023-04-26T18:37:54;99571.01;;;21.48;48.15
63708;BME280;67643;-34.198;22.084;2023-04-26T18:40:23;99569.60;;;21.54;47.83
63708;BME280;67643;-34.198;22.084;2023-04-26T18:42:51;99564.77;;;22.17;46.72
63708;BME280;67643;-34.198;22.084;2023-04-26T18:45:20;99563.59;;;21.59;47.85
63708;BME280;67643;-34.198;22.084;2023-04-26T18:47:48;99564.44;;;21.89;47.67
63708;BME280;67643;-34.198;22.084;2023-04-26T18:50:17;99562.09;;;21.74;47.72
63708;BME280;67643;-34.198;22.084;2023-04-26T18:52:45;99560.48;;;22.05;46.99
63708;BME280;67643;-34.198;22.084;2023-04-26T18:55:13;99566.61;;;22.00;46.92
63708;BME280;67643;-34.198;22.084;2023-04-26T18:57:42;99560.68;;;21.76;47.30
63708;BME280;67643;-34.198;22.084;2023-04-26T19:00:11;99551.62;;;21.88;47.14